createdAt,value
2024-03-12T00:00:48.792Z,99452.78
2024-03-12T00:01:51.908Z,99447.66
2024-03-12T00:02:54.981Z,99448.31
2024-03-12T00:03:59.458Z,99451.31
2024-03-12T00:05:09.416Z,99450.19
2024-03-12T00:06:12.964Z,99452.03
2024-03-12T00:07:18.048Z,99450.25
2024-03-12T00:08:21.116Z,99465.00
2024-03-12T00:09:24.414Z,99457.44
2024-03-12T00:10:28.919Z,99452.16
2024-03-12T00:11:32.822Z,99461.41
2024-03-12T00:12:37.615Z,99453.84
2024-03-12T00:13:41.155Z,99459.31
2024-03-12T00:14:44.236Z,99454.72
2024-03-12T00:15:48.093Z,99454.53
2024-03-12T00:16:51.263Z,99464.28
2024-03-12T00:17:56.060Z,99457.34
2024-03-12T00:18:59.275Z,99457.84
2024-03-12T00:20:07.387Z,99466.72
2024-03-12T00:21:10.856Z,99460.28
2024-03-12T00:22:13.964Z,99456.84
2024-03-12T00:23:17.043Z,99460.13
2024-03-12T00:24:20.097Z,99458.47
2024-03-12T00:25:23.477Z,99456.38
2024-03-12T00:26:26.542Z,99464.44
2024-03-12T00:27:29.644Z,99459.00
2024-03-12T00:28:34.508Z,99458.81
2024-03-12T00:29:37.628Z,99456.00
2024-03-12T00:30:44.184Z,99458.81
2024-03-12T00:31:47.284Z,99459.16
2024-03-12T00:32:50.560Z,99460.81
2024-03-12T00:33:53.763Z,99462.47
2024-03-12T00:34:56.866Z,99453.88
2024-03-12T00:35:59.940Z,99453.72
2024-03-12T00:37:03.150Z,99463.63
2024-03-12T00:38:06.348Z,99459.06
2024-03-12T00:39:11.498Z,99460.69
2024-03-12T00:40:15.735Z,99454.94
2024-03-12T00:41:18.836Z,99459.94
2024-03-12T00:42:24.095Z,99458.97
2024-03-12T00:43:27.841Z,99461.97
2024-03-12T00:44:31.672Z,99464.09
2024-03-12T00:45:38.783Z,99465.56
2024-03-12T00:46:42.467Z,99465.59
2024-03-12T00:47:46.652Z,99466.88
2024-03-12T00:48:49.737Z,99466.06
2024-03-12T00:49:53.387Z,99468.41
2024-03-12T00:50:57.171Z,99473.00
2024-03-12T00:52:00.507Z,99469.72
2024-03-12T00:53:04.131Z,99474.16
2024-03-12T00:54:07.221Z,99469.88
2024-03-12T00:55:11.245Z,99474.16
2024-03-12T00:56:16.516Z,99469.72
2024-03-12T00:57:21.398Z,99466.41
2024-03-12T00:58:24.931Z,99466.94
2024-03-12T00:59:28.102Z,99472.84
2024-03-12T01:00:35.034Z,99475.81
2024-03-12T01:01:38.327Z,99470.53
2024-03-12T01:02:41.440Z,99469.75
2024-03-12T01:03:44.555Z,99470.06
2024-03-12T01:04:47.634Z,99473.22
2024-03-12T01:05:50.712Z,99473.22
2024-03-12T01:06:54.238Z,99478.19
2024-03-12T01:08:02.803Z,99481.28
2024-03-12T01:09:07.542Z,99483.63
2024-03-12T01:10:11.008Z,99480.22
2024-03-12T01:11:14.372Z,99486.44
2024-03-12T01:12:17.500Z,99477.88
2024-03-12T01:13:21.703Z,99484.19
2024-03-12T01:14:24.846Z,99486.81
2024-03-12T01:15:28.398Z,99480.56
2024-03-12T01:16:31.526Z,99487.84
2024-03-12T01:17:35.060Z,99483.22
2024-03-12T01:18:39.440Z,99481.56
2024-03-12T01:19:43.287Z,99481.69
2024-03-12T01:20:46.443Z,99481.69
2024-03-12T01:21:50.012Z,99479.59
2024-03-12T01:22:55.562Z,99483.75
2024-03-12T01:23:58.746Z,99483.91
2024-03-12T01:25:02.676Z,99480.28
2024-03-12T01:26:07.961Z,99493.47
2024-03-12T01:27:11.606Z,99484.25
2024-03-12T01:28:14.756Z,99482.91
2024-03-12T01:29:18.008Z,99492.47
2024-03-12T01:30:25.638Z,99482.91
2024-03-12T01:31:28.727Z,99480.59
2024-03-12T01:32:32.096Z,99484.25
2024-03-12T01:33:36.257Z,99483.91
2024-03-12T01:34:39.343Z,99488.00
2024-03-12T01:35:42.580Z,99494.09
2024-03-12T01:36:48.464Z,99489.34
2024-03-12T01:37:58.296Z,99496.09
2024-03-12T01:39:08.342Z,99493.28
2024-03-12T01:40:21.172Z,99492.31
2024-03-12T01:41:25.096Z,99494.28
2024-03-12T01:42:28.213Z,99490.16
2024-03-12T01:43:31.281Z,99492.16
2024-03-12T01:44:36.308Z,99500.38
2024-03-12T01:45:39.722Z,99498.91
2024-03-12T01:46:43.303Z,99496.13
2024-03-12T01:47:47.062Z,99499.72
2024-03-12T01:48:50.166Z,99507.00
2024-03-12T01:49:53.927Z,99496.28
2024-03-12T01:50:57.004Z,99494.47
2024-03-12T01:52:00.259Z,99503.38
2024-03-12T01:53:07.326Z,99494.78
2024-03-12T01:54:10.891Z,99505.31
2024-03-12T01:55:15.535Z,99497.09
2024-03-12T01:56:18.704Z,99506.66
2024-03-12T01:57:21.910Z,99509.44
2024-03-12T01:58:24.978Z,99508.97
2024-03-12T01:59:28.042Z,99513.75
2024-03-12T02:00:34.352Z,99511.28
2024-03-12T02:01:38.057Z,99511.13
2024-03-12T02:02:46.764Z,99515.19
2024-03-12T02:03:52.984Z,99514.03
2024-03-12T02:04:57.692Z,99514.22
2024-03-12T02:06:01.495Z,99523.44
2024-03-12T02:07:05.357Z,99517.19
2024-03-12T02:08:08.488Z,99512.41
2024-03-12T02:09:13.572Z,99519.31
2024-03-12T02:10:18.107Z,99517.53
2024-03-12T02:11:21.248Z,99519.53
2024-03-12T02:12:24.358Z,99508.00
2024-03-12T02:13:27.438Z,99516.22
2024-03-12T02:14:30.559Z,99508.97
2024-03-12T02:15:35.533Z,99509.94
2024-03-12T02:16:40.199Z,99518.34
2024-03-12T02:17:43.281Z,99521.00
2024-03-12T02:18:46.383Z,99524.28
2024-03-12T02:19:49.460Z,99522.16
2024-03-12T02:20:52.598Z,99522.63
2024-03-12T02:21:55.679Z,99524.78
2024-03-12T02:23:00.436Z,99523.47
2024-03-12T02:24:03.579Z,99520.19
2024-03-12T02:25:08.339Z,99527.13
2024-03-12T02:26:12.107Z,99530.41
2024-03-12T02:27:15.136Z,99531.91
2024-03-12T02:28:18.821Z,99517.72
2024-03-12T02:29:21.877Z,99521.53
2024-03-12T02:30:25.044Z,99533.22
2024-03-12T02:31:28.182Z,99524.81
2024-03-12T02:32:31.275Z,99525.63
2024-03-12T02:33:35.004Z,99529.91
2024-03-12T02:34:38.189Z,99528.75
2024-03-12T02:35:41.214Z,99529.44
2024-03-12T02:36:44.281Z,99528.75
2024-03-12T02:37:47.532Z,99526.31
2024-03-12T02:38:50.762Z,99531.09
2024-03-12T02:39:53.913Z,99535.03
2024-03-12T02:40:56.979Z,99529.75
2024-03-12T02:42:00.196Z,99533.22
2024-03-12T02:43:03.335Z,99533.88
2024-03-12T02:44:06.765Z,99533.53
2024-03-12T02:45:16.089Z,99533.72
2024-03-12T02:46:22.193Z,99536.03
2024-03-12T02:47:26.052Z,99542.91
2024-03-12T02:48:29.086Z,99540.28
2024-03-12T02:49:32.137Z,99544.41
2024-03-12T02:50:35.170Z,99541.91
2024-03-12T02:51:38.759Z,99543.59
2024-03-12T02:52:43.421Z,99546.88
2024-03-12T02:53:46.660Z,99544.41
2024-03-12T02:54:49.708Z,99548.19
2024-03-12T02:55:52.751Z,99542.13
2024-03-12T02:56:55.818Z,99548.19
2024-03-12T02:57:59.322Z,99539.28
2024-03-12T02:59:02.806Z,99547.53
2024-03-12T03:00:14.150Z,99546.22
2024-03-12T03:01:18.423Z,99547.06
2024-03-12T03:02:21.598Z,99545.22
2024-03-12T03:03:24.687Z,99554.13
2024-03-12T03:04:29.194Z,99553.31
2024-03-12T03:05:32.281Z,99557.44
2024-03-12T03:06:35.993Z,99550.50
2024-03-12T03:07:41.632Z,99551.31
2024-03-12T03:08:44.825Z,99553.31
2024-03-12T03:09:47.879Z,99547.88
2024-03-12T03:10:51.034Z,99550.84
2024-03-12T03:11:54.708Z,99548.53
2024-03-12T03:12:57.788Z,99563.34
2024-03-12T03:14:01.429Z,99553.13
2024-03-12T03:15:05.236Z,99558.09
2024-03-12T03:16:08.306Z,99553.97
2024-03-12T03:17:11.398Z,99558.75
2024-03-12T03:18:14.510Z,99559.41
2024-03-12T03:19:18.358Z,99566.00
2024-03-12T03:20:21.392Z,99565.66
2024-03-12T03:21:25.447Z,99564.00
2024-03-12T03:22:29.408Z,99563.66
2024-03-12T03:23:32.534Z,99574.22
2024-03-12T03:24:38.261Z,99568.59
2024-03-12T03:25:41.581Z,99573.91
2024-03-12T03:26:44.678Z,99570.94
2024-03-12T03:27:47.785Z,99570.94
2024-03-12T03:28:50.838Z,99569.25
2024-03-12T03:29:58.018Z,99569.91
2024-03-12T03:31:01.674Z,99577.47
2024-03-12T03:32:07.960Z,99573.88
2024-03-12T03:33:12.882Z,99571.88
2024-03-12T03:34:19.060Z,99578.81
2024-03-12T03:35:22.256Z,99570.91
2024-03-12T03:36:25.767Z,99584.06
2024-03-12T03:37:34.042Z,99578.97
2024-03-12T03:38:41.463Z,99578.47
2024-03-12T03:39:44.681Z,99581.09
2024-03-12T03:40:48.177Z,99583.88
2024-03-12T03:41:52.549Z,99579.44
2024-03-12T03:42:57.742Z,99589.31
2024-03-12T03:44:00.997Z,99588.81
2024-03-12T03:45:04.795Z,99584.06
2024-03-12T03:46:07.852Z,99591.28
2024-03-12T03:47:10.891Z,99586.34
2024-03-12T03:48:13.939Z,99584.72
2024-03-12T03:50:20.337Z,99581.06
2024-03-12T03:51:23.533Z,99587.16
2024-03-12T03:52:26.628Z,99585.69
2024-03-12T03:53:29.787Z,99582.09
2024-03-12T03:54:32.852Z,99580.44
2024-03-12T03:55:36.926Z,99584.72
2024-03-12T03:56:39.961Z,99586.38
2024-03-12T03:57:43.056Z,99579.97
2024-03-12T03:58:46.682Z,99585.38
2024-03-12T03:59:51.288Z,99583.72
2024-03-12T04:00:54.461Z,99583.41
2024-03-12T04:01:57.543Z,99583.41
2024-03-12T04:03:00.627Z,99578.28
2024-03-12T04:04:12.313Z,99584.56
2024-03-12T04:05:15.794Z,99585.56
2024-03-12T04:06:22.534Z,99586.72
2024-03-12T04:07:26.570Z,99584.56
2024-03-12T04:08:32.008Z,99581.13
2024-03-12T04:09:35.730Z,99579.44
2024-03-12T04:10:38.776Z,99579.13
2024-03-12T04:11:42.838Z,99579.78
2024-03-12T04:12:46.921Z,99586.38
2024-03-12T04:13:55.926Z,99582.41
2024-03-12T04:14:59.329Z,99582.75
2024-03-12T04:16:02.486Z,99590.31
2024-03-12T04:17:05.712Z,99583.44
2024-03-12T04:18:09.143Z,99584.25
2024-03-12T04:19:12.210Z,99580.47
2024-03-12T04:20:17.973Z,99580.78
2024-03-12T04:21:22.057Z,99583.41
2024-03-12T04:22:25.686Z,99575.19
2024-03-12T04:23:28.781Z,99573.72
2024-03-12T04:24:32.868Z,99580.44
2024-03-12T04:25:36.034Z,99576.84
2024-03-12T04:26:39.082Z,99579.13
2024-03-12T04:27:42.285Z,99574.69
2024-03-12T04:28:45.372Z,99584.06
2024-03-12T04:29:48.824Z,99582.41
2024-03-12T04:30:52.809Z,99584.06
2024-03-12T04:31:56.256Z,99589.69
2024-03-12T04:32:59.384Z,99595.25
2024-03-12T04:34:02.533Z,99600.50
2024-03-12T04:35:06.557Z,99593.94
2024-03-12T04:36:15.291Z,99603.66
2024-03-12T04:37:18.476Z,99601.69
2024-03-12T04:38:21.504Z,99600.22
2024-03-12T04:39:33.499Z,99602.84
2024-03-12T04:40:36.643Z,99602.84
2024-03-12T04:41:39.751Z,99602.50
2024-03-12T04:42:46.697Z,99603.47
2024-03-12T04:43:50.493Z,99605.47
2024-03-12T04:44:54.515Z,99604.47
2024-03-12T04:45:57.699Z,99607.56
2024-03-12T04:47:01.269Z,99607.75
2024-03-12T04:48:04.530Z,99604.13
2024-03-12T04:49:08.498Z,99609.75
2024-03-12T04:50:15.516Z,99609.25
2024-03-12T04:51:19.070Z,99607.75
2024-03-12T04:52:22.131Z,99613.16
2024-03-12T04:53:25.171Z,99620.38
2024-03-12T04:54:28.356Z,99617.59
2024-03-12T04:55:35.190Z,99616.78
2024-03-12T04:56:38.580Z,99618.25
2024-03-12T04:57:41.632Z,99620.22
2024-03-12T04:58:44.697Z,99620.88
2024-03-12T04:59:49.262Z,99620.53
2024-03-12T05:00:52.366Z,99619.56
2024-03-12T05:01:56.219Z,99623.19
2024-03-12T05:02:59.342Z,99628.13
2024-03-12T05:04:08.409Z,99620.91
2024-03-12T05:05:25.046Z,99625.50
2024-03-12T05:06:28.145Z,99621.06
2024-03-12T05:07:31.187Z,99615.31
2024-03-12T05:08:34.239Z,99628.28
2024-03-12T05:09:37.318Z,99623.69
2024-03-12T05:10:40.392Z,99623.53
2024-03-12T05:11:43.471Z,99618.91
2024-03-12T05:12:46.698Z,99622.88
2024-03-12T05:13:49.897Z,99622.22
2024-03-12T05:14:53.114Z,99630.09
2024-03-12T05:15:56.240Z,99632.59
2024-03-12T05:17:00.528Z,99634.09
2024-03-12T05:18:04.110Z,99639.03
2024-03-12T05:19:11.957Z,99627.50
2024-03-12T05:20:15.937Z,99630.66
2024-03-12T05:21:19.140Z,99631.47
2024-03-12T05:22:23.403Z,99635.25
2024-03-12T05:23:26.484Z,99635.41
2024-03-12T05:24:30.826Z,99633.59
2024-03-12T05:25:43.728Z,99635.06
2024-03-12T05:26:49.050Z,99634.25
2024-03-12T05:27:52.619Z,99638.72
2024-03-12T05:29:02.810Z,99641.00
2024-03-12T05:30:15.927Z,99650.88
2024-03-12T05:31:23.185Z,99653.84
2024-03-12T05:32:26.275Z,99643.50
2024-03-12T05:33:31.341Z,99650.22
2024-03-12T05:34:40.346Z,99645.63
2024-03-12T05:35:52.577Z,99649.75
2024-03-12T05:37:05.142Z,99653.53
2024-03-12T05:38:23.639Z,99652.06
2024-03-12T05:39:49.134Z,99647.47
2024-03-12T05:40:58.915Z,99645.81
2024-03-12T05:42:20.569Z,99644.97
2024-03-12T05:43:42.223Z,99649.94
2024-03-12T05:45:03.804Z,99652.88
2024-03-12T05:46:25.379Z,99646.97
2024-03-12T05:47:48.068Z,99650.25
2024-03-12T05:48:52.112Z,99652.72
2024-03-12T05:49:56.460Z,99664.41
2024-03-12T05:51:00.583Z,99661.44
2024-03-12T05:52:04.224Z,99657.31
2024-03-12T05:53:07.355Z,99659.47
2024-03-12T05:54:10.995Z,99657.50
2024-03-12T05:55:16.893Z,99667.84
2024-03-12T05:56:21.128Z,99668.66
2024-03-12T05:57:24.513Z,99666.38
2024-03-12T05:58:27.688Z,99664.56
2024-03-12T05:59:31.933Z,99668.88
2024-03-12T06:00:35.092Z,99668.53
2024-03-12T06:01:38.374Z,99664.56
2024-03-12T06:02:43.106Z,99667.88
2024-03-12T06:03:46.344Z,99665.56
2024-03-12T06:04:49.410Z,99671.13
2024-03-12T06:05:52.471Z,99676.25
2024-03-12T06:06:55.593Z,99671.00
2024-03-12T06:08:01.277Z,99672.66
2024-03-12T06:09:04.368Z,99663.75
2024-03-12T06:10:08.727Z,99668.06
2024-03-12T06:11:14.948Z,99668.53
2024-03-12T06:12:19.576Z,99673.16
2024-03-12T06:13:23.991Z,99677.28
2024-03-12T06:14:27.052Z,99674.97
2024-03-12T06:15:32.779Z,99671.66
2024-03-12T06:16:36.053Z,99671.34
2024-03-12T06:17:39.131Z,99678.28
2024-03-12T06:18:42.271Z,99674.97
2024-03-12T06:19:45.346Z,99675.97
2024-03-12T06:20:48.708Z,99679.91
2024-03-12T06:21:52.375Z,99680.25
2024-03-12T06:22:55.532Z,99674.97
2024-03-12T06:23:58.657Z,99683.38
2024-03-12T06:25:02.195Z,99677.75
2024-03-12T06:26:05.697Z,99679.91
2024-03-12T06:27:09.250Z,99688.16
2024-03-12T06:28:13.020Z,99688.81
2024-03-12T06:29:16.132Z,99685.19
2024-03-12T06:30:19.833Z,99683.03
2024-03-12T06:31:23.851Z,99681.22
2024-03-12T06:32:32.577Z,99686.81
2024-03-12T06:33:36.644Z,99686.81
2024-03-12T06:34:39.918Z,99691.47
2024-03-12T06:35:43.010Z,99693.41
2024-03-12T06:36:50.917Z,99692.28
2024-03-12T06:37:54.019Z,99695.25
2024-03-12T06:38:57.078Z,99687.16
2024-03-12T06:40:00.262Z,99692.59
2024-03-12T06:41:06.757Z,99687.16
2024-03-12T06:42:15.654Z,99685.84
2024-03-12T06:43:19.914Z,99686.50
2024-03-12T06:44:26.945Z,99692.94
2024-03-12T06:45:30.439Z,99695.91
2024-03-12T06:46:33.648Z,99700.84
2024-03-12T06:47:41.382Z,99695.75
2024-03-12T06:48:45.212Z,99703.81
2024-03-12T06:49:48.952Z,99701.19
2024-03-12T06:50:52.117Z,99706.44
2024-03-12T06:51:55.860Z,99705.47
2024-03-12T06:52:58.953Z,99703.47
2024-03-12T06:54:02.042Z,99713.22
2024-03-12T06:55:06.303Z,99714.69
2024-03-12T06:56:09.724Z,99706.44
2024-03-12T06:57:13.076Z,99704.91
2024-03-12T06:58:20.352Z,99712.06
2024-03-12T06:59:23.675Z,99708.06
2024-03-12T07:00:41.583Z,99711.94
2024-03-12T07:01:46.630Z,99705.81
2024-03-12T07:02:51.078Z,99711.44
2024-03-12T07:03:58.639Z,99706.34
2024-03-12T07:05:04.136Z,99700.53
2024-03-12T07:06:08.802Z,99701.88
2024-03-12T07:07:14.657Z,99707.00
2024-03-12T07:08:19.291Z,99705.44
2024-03-12T07:09:28.284Z,99707.91
2024-03-12T07:10:31.525Z,99715.81
2024-03-12T07:11:35.584Z,99711.41
2024-03-12T07:12:38.973Z,99719.13
2024-03-12T07:13:44.080Z,99718.69
2024-03-12T07:14:56.048Z,99711.63
2024-03-12T07:16:01.441Z,99715.44
2024-03-12T07:17:05.407Z,99712.41
2024-03-12T07:18:09.239Z,99725.53
2024-03-12T07:19:12.605Z,99721.53
2024-03-12T07:20:21.679Z,99724.69
2024-03-12T07:21:26.482Z,99728.31
2024-03-12T07:22:29.565Z,99725.84
2024-03-12T07:23:32.626Z,99725.47
2024-03-12T07:24:36.749Z,99726.47
2024-03-12T07:25:39.875Z,99725.19
2024-03-12T07:26:48.143Z,99723.91
2024-03-12T07:27:51.369Z,99730.81
2024-03-12T07:28:54.760Z,99727.47
2024-03-12T07:29:57.829Z,99726.53
2024-03-12T07:31:00.930Z,99728.53
2024-03-12T07:32:06.178Z,99729.19
2024-03-12T07:33:09.338Z,99738.38
2024-03-12T07:35:15.599Z,99731.50
2024-03-12T07:36:18.675Z,99728.91
2024-03-12T07:37:22.215Z,99728.22
2024-03-12T07:38:25.519Z,99734.19
2024-03-12T07:39:39.408Z,99731.25
2024-03-12T07:40:44.932Z,99728.75
2024-03-12T07:41:48.741Z,99724.63
2024-03-12T07:42:51.810Z,99732.88
2024-03-12T07:43:55.067Z,99736.53
2024-03-12T07:44:58.422Z,99736.53
2024-03-12T07:46:03.340Z,99736.34
2024-03-12T07:47:06.689Z,99729.72
2024-03-12T07:48:10.090Z,99733.53
2024-03-12T07:49:14.042Z,99741.44
2024-03-12T07:50:17.146Z,99737.31
2024-03-12T07:51:20.388Z,99739.78
2024-03-12T07:52:23.426Z,99738.47
2024-03-12T07:53:31.091Z,99731.56
2024-03-12T07:54:34.778Z,99733.66
2024-03-12T07:55:38.140Z,99738.47
2024-03-12T07:56:42.566Z,99745.72
2024-03-12T07:57:45.648Z,99743.44
2024-03-12T07:58:49.531Z,99746.41
2024-03-12T07:59:53.494Z,99745.75
2024-03-12T08:00:56.850Z,99743.28
2024-03-12T08:02:00.229Z,99747.88
2024-03-12T08:03:03.395Z,99745.59
2024-03-12T08:04:06.549Z,99750.88
2024-03-12T08:05:09.775Z,99750.56
2024-03-12T08:06:12.840Z,99749.25
2024-03-12T08:07:16.278Z,99756.97
2024-03-12T08:08:20.278Z,99751.03
2024-03-12T08:09:24.434Z,99755.34
2024-03-12T08:10:27.590Z,99757.16
2024-03-12T08:11:31.584Z,99758.97
2024-03-12T08:12:34.876Z,99757.00
2024-03-12T08:13:38.009Z,99749.06
2024-03-12T08:14:41.532Z,99762.59
2024-03-12T08:15:45.854Z,99766.22
2024-03-12T08:16:50.373Z,99764.09
2024-03-12T08:17:57.306Z,99767.41
2024-03-12T08:19:02.995Z,99764.41
2024-03-12T08:20:07.384Z,99768.53
2024-03-12T08:21:10.613Z,99766.03
2024-03-12T08:22:13.766Z,99761.28
2024-03-12T08:23:16.955Z,99763.75
2024-03-12T08:24:20.841Z,99767.50
2024-03-12T08:25:23.966Z,99766.50
2024-03-12T08:26:32.853Z,99762.22
2024-03-12T08:27:35.956Z,99764.19
2024-03-12T08:28:39.189Z,99768.16
2024-03-12T08:29:42.235Z,99765.50
2024-03-12T08:30:48.993Z,99772.06
2024-03-12T08:31:59.378Z,99769.09
2024-03-12T08:33:05.372Z,99773.19
2024-03-12T08:34:10.694Z,99769.22
2024-03-12T08:35:13.783Z,99771.31
2024-03-12T08:36:17.674Z,99771.50
2024-03-12T08:37:23.690Z,99765.97
2024-03-12T08:38:29.918Z,99765.59
2024-03-12T08:39:33.014Z,99769.06
2024-03-12T08:40:36.261Z,99769.19
2024-03-12T08:41:42.995Z,99767.84
2024-03-12T08:42:54.066Z,99767.38
2024-03-12T08:44:04.847Z,99766.53
2024-03-12T08:45:11.197Z,99766.91
2024-03-12T08:46:14.277Z,99766.09
2024-03-12T08:47:19.586Z,99776.47
2024-03-12T08:48:22.855Z,99769.75
2024-03-12T08:49:25.915Z,99772.56
2024-03-12T08:50:28.989Z,99773.22
2024-03-12T08:51:36.958Z,99771.28
2024-03-12T08:52:40.060Z,99778.00
2024-03-12T08:53:43.182Z,99779.31
2024-03-12T08:54:46.276Z,99772.97
2024-03-12T08:55:49.343Z,99773.97
2024-03-12T08:56:52.656Z,99776.63
2024-03-12T08:57:55.853Z,99772.34
2024-03-12T08:58:59.596Z,99774.44
2024-03-12T09:00:03.245Z,99784.56
2024-03-12T09:01:06.511Z,99779.63
2024-03-12T09:02:10.165Z,99784.91
2024-03-12T09:03:13.332Z,99775.59
2024-03-12T09:04:16.780Z,99779.22
2024-03-12T09:05:20.829Z,99779.50
2024-03-12T09:06:23.914Z,99781.50
2024-03-12T09:07:27.168Z,99781.84
2024-03-12T09:08:30.932Z,99787.13
2024-03-12T09:09:34.251Z,99786.19
2024-03-12T09:10:40.305Z,99784.56
2024-03-12T09:11:43.713Z,99793.50
2024-03-12T09:12:46.792Z,99791.41
2024-03-12T09:13:49.981Z,99781.56
2024-03-12T09:14:53.884Z,99792.03
2024-03-12T09:15:57.993Z,99788.66
2024-03-12T09:17:01.257Z,99794.13
2024-03-12T09:18:07.860Z,99792.53
2024-03-12T09:19:11.164Z,99787.84
2024-03-12T09:20:14.244Z,99790.91
2024-03-12T09:21:18.419Z,99790.75
2024-03-12T09:22:23.920Z,99798.78
2024-03-12T09:23:30.473Z,99789.13
2024-03-12T09:24:33.643Z,99792.84
2024-03-12T09:25:37.652Z,99797.38
2024-03-12T09:26:40.773Z,99803.59
2024-03-12T09:27:43.848Z,99797.38
2024-03-12T09:28:47.969Z,99790.44
2024-03-12T09:29:51.014Z,99797.38
2024-03-12T09:30:55.645Z,99803.25
2024-03-12T09:32:00.325Z,99794.31
2024-03-12T09:33:03.838Z,99799.25
2024-03-12T09:34:08.005Z,99798.94
2024-03-12T09:35:11.463Z,99800.88
2024-03-12T09:36:15.758Z,99802.19
2024-03-12T09:37:19.427Z,99807.00
2024-03-12T09:38:22.965Z,99808.94
2024-03-12T09:39:26.030Z,99814.03
2024-03-12T09:40:29.771Z,99807.13
2024-03-12T09:41:35.296Z,99816.53
2024-03-12T09:42:39.320Z,99808.66
2024-03-12T09:43:45.170Z,99803.34
2024-03-12T09:44:49.634Z,99802.66
2024-03-12T09:45:52.839Z,99804.63
2024-03-12T09:46:56.539Z,99809.56
2024-03-12T09:48:00.289Z,99808.81
2024-03-12T09:49:03.962Z,99805.19
2024-03-12T09:50:12.615Z,99813.44
2024-03-12T09:51:16.220Z,99814.34
2024-03-12T09:52:19.295Z,99812.63
2024-03-12T09:53:22.418Z,99814.16
2024-03-12T09:54:28.442Z,99813.94
2024-03-12T09:55:33.168Z,99810.16
2024-03-12T09:56:36.718Z,99818.41
2024-03-12T09:57:40.010Z,99814.75
2024-03-12T09:58:44.502Z,99814.44
2024-03-12T09:59:47.548Z,99807.84
2024-03-12T10:00:51.192Z,99813.34
2024-03-12T10:01:54.547Z,99816.28
2024-03-12T10:03:00.986Z,99820.09
2024-03-12T10:04:05.862Z,99819.63
2024-03-12T10:05:13.697Z,99817.97
2024-03-12T10:06:18.017Z,99821.66
2024-03-12T10:07:21.272Z,99827.59
2024-03-12T10:08:29.613Z,99823.66
2024-03-12T10:09:32.893Z,99825.94
2024-03-12T10:10:52.932Z,99819.66
2024-03-12T10:11:56.793Z,99823.78
2024-03-12T10:13:00.648Z,99817.72
2024-03-12T10:14:07.428Z,99826.47
2024-03-12T10:15:15.986Z,99831.75
2024-03-12T10:16:20.177Z,99825.69
2024-03-12T10:17:24.054Z,99826.63
2024-03-12T10:18:29.859Z,99826.81
2024-03-12T10:19:33.496Z,99821.69
2024-03-12T10:20:57.573Z,99830.94
2024-03-12T10:22:10.794Z,99832.13
2024-03-12T10:23:17.044Z,99830.09
2024-03-12T10:24:22.998Z,99828.81
2024-03-12T10:25:26.284Z,99824.34
2024-03-12T10:26:30.616Z,99828.00
2024-03-12T10:27:33.724Z,99835.41
2024-03-12T10:28:38.936Z,99826.69
2024-03-12T10:29:42.542Z,99828.16
2024-03-12T10:30:47.126Z,99834.91
2024-03-12T10:31:51.413Z,99825.97
2024-03-12T10:32:55.122Z,99833.63
2024-03-12T10:34:11.304Z,99835.59
2024-03-12T10:35:23.096Z,99830.13
2024-03-12T10:36:34.379Z,99833.94
2024-03-12T10:37:39.761Z,99834.59
2024-03-12T10:38:44.245Z,99836.28
2024-03-12T10:39:47.400Z,99834.59
2024-03-12T10:40:50.457Z,99834.28
2024-03-12T10:42:01.553Z,99834.44
2024-03-12T10:43:07.257Z,99839.88
2024-03-12T10:44:12.261Z,99833.47
2024-03-12T10:45:17.471Z,99830.00
2024-03-12T10:46:22.468Z,99828.72
2024-03-12T10:47:25.856Z,99834.00
2024-03-12T10:48:29.014Z,99828.06
2024-03-12T10:49:32.244Z,99834.63
2024-03-12T10:50:36.532Z,99833.31
2024-03-12T10:51:46.490Z,99839.75
2024-03-12T10:52:51.657Z,99838.59
2024-03-12T10:53:55.330Z,99831.66
2024-03-12T10:55:05.732Z,99839.56
2024-03-12T10:56:15.876Z,99836.59
2024-03-12T10:57:19.377Z,99838.59
2024-03-12T10:58:24.862Z,99835.25
2024-03-12T10:59:32.869Z,99839.06
2024-03-12T11:00:40.911Z,99842.22
2024-03-12T11:01:44.963Z,99848.63
2024-03-12T11:02:51.532Z,99843.06
2024-03-12T11:04:00.138Z,99843.19
2024-03-12T11:05:04.316Z,99839.22
2024-03-12T11:06:10.005Z,99839.22
2024-03-12T11:07:13.599Z,99837.59
2024-03-12T11:08:17.876Z,99836.09
2024-03-12T11:09:29.996Z,99840.44
2024-03-12T11:10:34.257Z,99841.25
2024-03-12T11:11:38.062Z,99842.53
2024-03-12T11:12:44.403Z,99840.44
2024-03-12T11:13:51.103Z,99844.84
2024-03-12T11:14:57.316Z,99839.72
2024-03-12T11:16:11.472Z,99846.81
2024-03-12T11:17:28.859Z,99839.19
2024-03-12T11:18:36.061Z,99837.41
2024-03-12T11:19:39.150Z,99841.16
2024-03-12T11:20:43.088Z,99843.81
2024-03-12T11:21:48.968Z,99841.16
2024-03-12T11:22:57.958Z,99838.53
2024-03-12T11:24:01.232Z,99838.38
2024-03-12T11:25:10.294Z,99839.03
2024-03-12T11:26:16.313Z,99836.22
2024-03-12T11:27:26.798Z,99837.69
2024-03-12T11:28:29.996Z,99836.81
2024-03-12T11:30:13.139Z,99838.81
2024-03-12T11:31:16.438Z,99837.34
2024-03-12T11:32:20.242Z,99839.47
2024-03-12T11:33:52.971Z,99840.13
2024-03-12T11:34:57.695Z,99839.47
2024-03-12T11:36:00.844Z,99841.44
2024-03-12T11:37:18.242Z,99844.94
2024-03-12T11:38:31.157Z,99839.34
2024-03-12T11:39:35.055Z,99845.41
2024-03-12T11:40:41.196Z,99834.84
2024-03-12T11:42:02.441Z,99844.03
2024-03-12T11:43:06.067Z,99841.13
2024-03-12T11:44:10.587Z,99845.06
2024-03-12T11:45:46.788Z,99847.19
2024-03-12T11:46:53.049Z,99838.59
2024-03-12T11:47:56.832Z,99842.38
2024-03-12T11:49:00.481Z,99844.34
2024-03-12T11:50:09.147Z,99835.78
2024-03-12T11:51:15.404Z,99843.88
2024-03-12T11:52:25.128Z,99839.59
2024-03-12T11:53:36.821Z,99839.88
2024-03-12T11:54:48.450Z,99838.59
2024-03-12T11:56:09.726Z,99841.41
2024-03-12T11:57:26.737Z,99846.22
2024-03-12T11:58:33.148Z,99843.72
2024-03-12T11:59:37.029Z,99837.94
2024-03-12T12:00:40.323Z,99842.72
2024-03-12T12:01:44.162Z,99837.09
2024-03-12T12:02:49.922Z,99840.38
2024-03-12T12:04:09.055Z,99842.47
2024-03-12T12:05:14.527Z,99840.69
2024-03-12T12:06:20.897Z,99847.31
2024-03-12T12:07:27.162Z,99841.31
2024-03-12T12:08:39.582Z,99838.03
2024-03-12T12:09:51.586Z,99843.78
2024-03-12T12:11:10.970Z,99854.53
2024-03-12T12:12:15.546Z,99849.44
2024-03-12T12:13:18.622Z,99845.66
2024-03-12T12:14:23.437Z,99845.44
2024-03-12T12:15:30.506Z,99846.59
2024-03-12T12:16:33.803Z,99835.41
2024-03-12T12:17:36.925Z,99847.66
2024-03-12T12:18:41.636Z,99851.78
2024-03-12T12:19:45.385Z,99842.72
2024-03-12T12:20:48.481Z,99846.66
2024-03-12T12:21:53.036Z,99849.94
2024-03-12T12:22:56.926Z,99848.81
2024-03-12T12:24:03.689Z,99851.16
2024-03-12T12:25:08.010Z,99845.66
2024-03-12T12:26:19.942Z,99843.31
2024-03-12T12:27:23.864Z,99853.25
2024-03-12T12:28:28.073Z,99848.94
2024-03-12T12:29:32.078Z,99852.25
2024-03-12T12:30:36.933Z,99853.59
2024-03-12T12:31:42.845Z,99841.56
2024-03-12T12:32:46.816Z,99855.63
2024-03-12T12:33:57.029Z,99856.59
2024-03-12T12:35:01.376Z,99855.75
2024-03-12T12:36:10.155Z,99853.41
2024-03-12T12:37:13.341Z,99856.25
2024-03-12T12:38:17.979Z,99851.94
2024-03-12T12:39:24.976Z,99853.09
2024-03-12T12:40:32.914Z,99853.94
2024-03-12T12:41:36.487Z,99856.25
2024-03-12T12:42:40.015Z,99852.28
2024-03-12T12:43:45.869Z,99857.88
2024-03-12T12:44:55.317Z,99861.50
2024-03-12T12:45:58.748Z,99857.53
2024-03-12T12:47:04.308Z,99856.25